Brendelen — EINR — position and weather

sailwx.info

Track history (hours):
 
Tides and Currents Weather Stations Pressure Air Temp Water Temp Dewpoint Dewpoint Depression Visibility Wind Speed Wind Dir Waves Ship Positions

Brendelen

Last reported at 2015-Jan-23 01:11 UTC. Time now 2015-Jan-31 08:41 UTC.
Position N 53°51' W 010°30'.
Warning: this ship's position is 8 days out of date.

Length 64 m; draft 7.8 m.

Type: Fishing. MMSI: 250512000.

Date/timePositionNaut miles runAvg speedWind from/ knotsBaromVisibWave heightAir tempDewpointWater temp
2015-Jan-23 01:11N 53°51' W 010°30'711.4
2015-Jan-23 00:33N 53°58' W 010°24'1110.9
2015-Jan-22 23:33N 54°07' W 010°16'6111.4
2015-Jan-22 18:11N 54°33' W 008°41'812.2
2015-Jan-22 17:33N 54°36' W 008°29'2 2.4
2015-Jan-22 16:33N 54°38' W 008°26'0 0.0
2015-Jan-22 15:33N 54°38' W 008°26'0 0.0
2015-Jan-22 14:33N 54°38' W 008°26'0 0.0
2015-Jan-22 13:33N 54°38' W 008°26'0 0.0
2015-Jan-22 12:33N 54°38' W 008°26'0 0.0
2015-Jan-22 11:33N 54°38' W 008°26'0 0.0
2015-Jan-22 10:33N 54°38' W 008°26'0 0.0
2015-Jan-22 09:33N 54°38' W 008°26'0 0.0
2015-Jan-22 08:33N 54°38' W 008°26'0 0.0
2015-Jan-22 07:33N 54°38' W 008°26'0 0.0
2015-Jan-22 06:33N 54°38' W 008°26'0 0.0
2015-Jan-22 05:33N 54°38' W 008°26'0 0.0
2015-Jan-22 04:33N 54°38' W 008°26'0 0.0
2015-Jan-22 03:33N 54°38' W 008°26'0 0.0
2015-Jan-22 02:33N 54°38' W 008°26'0 0.0
2015-Jan-22 01:33N 54°38' W 008°26'0 0.0
2015-Jan-22 00:33N 54°38' W 008°26'0 0.0
2015-Jan-21 23:33N 54°38' W 008°26'0 0.0
2015-Jan-21 22:50N 54°38' W 008°26'0 0.1
2015-Jan-21 22:46N 54°38' W 008°26'0 0.0
2015-Jan-21 22:33N 54°38' W 008°26'0 0.0
2015-Jan-21 21:33N 54°38' W 008°26'0 0.0
2015-Jan-21 20:33N 54°38' W 008°26'0 0.0
2015-Jan-21 19:33N 54°38' W 008°26'0 0.0
2015-Jan-21 18:33N 54°38' W 008°26'0 0.0
2015-Jan-21 17:33N 54°38' W 008°26'0 0.0
2015-Jan-21 16:33N 54°38' W 008°26'0 0.0
2015-Jan-21 15:33N 54°38' W 008°26'0 0.0
2015-Jan-21 14:33N 54°38' W 008°26'0 0.0
2015-Jan-21 13:33N 54°38' W 008°26'0 0.0
2015-Jan-21 12:33N 54°38' W 008°26'0 0.0
2015-Jan-21 11:33N 54°38' W 008°26'0 0.0
2015-Jan-21 10:33N 54°38' W 008°26'0 0.0
2015-Jan-21 09:33N 54°38' W 008°26'0 0.0
2015-Jan-21 08:33N 54°38' W 008°26'0 0.0
2015-Jan-21 07:33N 54°38' W 008°26'0 0.0
2015-Jan-21 06:33N 54°38' W 008°26'0 0.0
2015-Jan-21 05:33N 54°38' W 008°26'0 0.0
2015-Jan-21 04:33N 54°38' W 008°26'0 0.0
2015-Jan-21 03:33N 54°38' W 008°26'0 0.0
2015-Jan-21 02:33N 54°38' W 008°26'0 0.0
2015-Jan-21 01:33N 54°38' W 008°26'0 0.0
2015-Jan-21 00:33N 54°38' W 008°26'0 0.0
2015-Jan-20 23:33N 54°38' W 008°26'0 0.0
2015-Jan-20 22:33N 54°38' W 008°26'0 0.0
2015-Jan-20 21:33N 54°38' W 008°26'0 0.0
2015-Jan-20 20:33N 54°38' W 008°26'0 0.0
2015-Jan-20 19:33N 54°38' W 008°26'0 0.0
2015-Jan-20 18:33N 54°38' W 008°26'0 0.0
2015-Jan-20 17:33N 54°38' W 008°26'0 0.0
2015-Jan-20 16:33N 54°38' W 008°26'0 0.0
2015-Jan-20 15:33N 54°38' W 008°26'0 0.0
2015-Jan-20 14:33N 54°38' W 008°26'0 0.0
2015-Jan-20 13:33N 54°38' W 008°26'0 0.0
2015-Jan-20 12:33N 54°38' W 008°26'0 0.0
2015-Jan-20 11:33N 54°38' W 008°26'0 0.0
2015-Jan-20 10:33N 54°38' W 008°26'0 0.0
2015-Jan-20 09:33N 54°38' W 008°26'0 0.0
2015-Jan-20 08:33N 54°38' W 008°26'0 0.0
2015-Jan-20 07:33N 54°38' W 008°26'0 0.0
2015-Jan-20 06:33N 54°38' W 008°26'0 0.0
2015-Jan-20 05:33N 54°38' W 008°26'0 0.0
2015-Jan-20 04:33N 54°38' W 008°26'0 0.0
2015-Jan-20 03:33N 54°38' W 008°26'0 0.0
2015-Jan-20 02:33N 54°38' W 008°26'0 0.0
2015-Jan-20 01:33N 54°38' W 008°26'0 0.0
2015-Jan-20 00:34N 54°38' W 008°26'0 0.0
2015-Jan-19 23:33N 54°38' W 008°26'0 0.0
2015-Jan-19 22:33N 54°38' W 008°26'0 0.0
2015-Jan-19 21:33N 54°38' W 008°26'3 2.6
2015-Jan-19 20:33N 54°36' W 008°29'23310.6
2015-Jan-18 22:32N 58°15' W 006°06'4 0.1
2015-Jan-17 09:33N 58°18' W 006°02'234 5.4
2015-Jan-15 14:08N 54°38' W 008°26'0 0.0
2015-Jan-15 13:33N 54°38' W 008°26'0 0.0
2015-Jan-15 00:04N 54°38' W 008°26'0 0.0
2015-Jan-14 23:25N 54°38' W 008°26'0 0.0
2015-Jan-14 21:08N 54°38' W 008°26'0 0.0
2015-Jan-14 20:32N 54°38' W 008°26'0 0.0
2015-Jan-14 19:17N 54°38' W 008°26'0 0.0
2015-Jan-14 04:23N 54°38' W 008°26'0 0.0
2015-Jan-13 17:18N 54°38' W 008°26'0 0.0
2015-Jan-13 15:33N 54°38' W 008°26'0 0.0
2015-Jan-13 07:19N 54°38' W 008°26'0 0.0
2015-Jan-13 05:04N 54°38' W 008°26'  
Track history (hours):
 
Tides and Currents Weather Stations Pressure Air Temp Water Temp Dewpoint Dewpoint Depression Visibility Wind Speed Wind Dir Waves Ship Positions

Brendelen

Last reported at 2015-Jan-23 01:11 UTC. Time now 2015-Jan-31 08:41 UTC.
Position N 53°51' W 010°30'.
Warning: this ship's position is 8 days out of date.

Length 64 m; draft 7.8 m.

Type: Fishing. MMSI: 250512000.

Date/timePositionNaut miles runAvg speedWind from/ knotsBaromVisibWave heightAir tempDewpointWater temp
2015-Jan-23 01:11N 53°51' W 010°30'711.4
2015-Jan-23 00:33N 53°58' W 010°24'1110.9
2015-Jan-22 23:33N 54°07' W 010°16'6111.4
2015-Jan-22 18:11N 54°33' W 008°41'812.2
2015-Jan-22 17:33N 54°36' W 008°29'2 2.4
2015-Jan-22 16:33N 54°38' W 008°26'0 0.0
2015-Jan-22 15:33N 54°38' W 008°26'0 0.0
2015-Jan-22 14:33N 54°38' W 008°26'0 0.0
2015-Jan-22 13:33N 54°38' W 008°26'0 0.0
2015-Jan-22 12:33N 54°38' W 008°26'0 0.0
2015-Jan-22 11:33N 54°38' W 008°26'0 0.0
2015-Jan-22 10:33N 54°38' W 008°26'0 0.0
2015-Jan-22 09:33N 54°38' W 008°26'0 0.0
2015-Jan-22 08:33N 54°38' W 008°26'0 0.0
2015-Jan-22 07:33N 54°38' W 008°26'0 0.0
2015-Jan-22 06:33N 54°38' W 008°26'0 0.0
2015-Jan-22 05:33N 54°38' W 008°26'0 0.0
2015-Jan-22 04:33N 54°38' W 008°26'0 0.0
2015-Jan-22 03:33N 54°38' W 008°26'0 0.0
2015-Jan-22 02:33N 54°38' W 008°26'0 0.0
2015-Jan-22 01:33N 54°38' W 008°26'0 0.0
2015-Jan-22 00:33N 54°38' W 008°26'0 0.0
2015-Jan-21 23:33N 54°38' W 008°26'0 0.0
2015-Jan-21 22:50N 54°38' W 008°26'0 0.1
2015-Jan-21 22:46N 54°38' W 008°26'0 0.0
2015-Jan-21 22:33N 54°38' W 008°26'0 0.0
2015-Jan-21 21:33N 54°38' W 008°26'0 0.0
2015-Jan-21 20:33N 54°38' W 008°26'0 0.0
2015-Jan-21 19:33N 54°38' W 008°26'0 0.0
2015-Jan-21 18:33N 54°38' W 008°26'0 0.0
2015-Jan-21 17:33N 54°38' W 008°26'0 0.0
2015-Jan-21 16:33N 54°38' W 008°26'0 0.0
2015-Jan-21 15:33N 54°38' W 008°26'0 0.0
2015-Jan-21 14:33N 54°38' W 008°26'0 0.0
2015-Jan-21 13:33N 54°38' W 008°26'0 0.0
2015-Jan-21 12:33N 54°38' W 008°26'0 0.0
2015-Jan-21 11:33N 54°38' W 008°26'0 0.0
2015-Jan-21 10:33N 54°38' W 008°26'0 0.0
2015-Jan-21 09:33N 54°38' W 008°26'0 0.0
2015-Jan-21 08:33N 54°38' W 008°26'0 0.0
2015-Jan-21 07:33N 54°38' W 008°26'0 0.0
2015-Jan-21 06:33N 54°38' W 008°26'0 0.0
2015-Jan-21 05:33N 54°38' W 008°26'0 0.0
2015-Jan-21 04:33N 54°38' W 008°26'0 0.0
2015-Jan-21 03:33N 54°38' W 008°26'0 0.0
2015-Jan-21 02:33N 54°38' W 008°26'0 0.0
2015-Jan-21 01:33N 54°38' W 008°26'0 0.0
2015-Jan-21 00:33N 54°38' W 008°26'0 0.0
2015-Jan-20 23:33N 54°38' W 008°26'0 0.0
2015-Jan-20 22:33N 54°38' W 008°26'0 0.0
2015-Jan-20 21:33N 54°38' W 008°26'0 0.0
2015-Jan-20 20:33N 54°38' W 008°26'0 0.0
2015-Jan-20 19:33N 54°38' W 008°26'0 0.0
2015-Jan-20 18:33N 54°38' W 008°26'0 0.0
2015-Jan-20 17:33N 54°38' W 008°26'0 0.0
2015-Jan-20 16:33N 54°38' W 008°26'0 0.0
2015-Jan-20 15:33N 54°38' W 008°26'0 0.0
2015-Jan-20 14:33N 54°38' W 008°26'0 0.0
2015-Jan-20 13:33N 54°38' W 008°26'0 0.0
2015-Jan-20 12:33N 54°38' W 008°26'0 0.0
2015-Jan-20 11:33N 54°38' W 008°26'0 0.0
2015-Jan-20 10:33N 54°38' W 008°26'0 0.0
2015-Jan-20 09:33N 54°38' W 008°26'0 0.0
2015-Jan-20 08:33N 54°38' W 008°26'0 0.0
2015-Jan-20 07:33N 54°38' W 008°26'0 0.0
2015-Jan-20 06:33N 54°38' W 008°26'0 0.0
2015-Jan-20 05:33N 54°38' W 008°26'0 0.0
2015-Jan-20 04:33N 54°38' W 008°26'0 0.0
2015-Jan-20 03:33N 54°38' W 008°26'0 0.0
2015-Jan-20 02:33N 54°38' W 008°26'0 0.0
2015-Jan-20 01:33N 54°38' W 008°26'0 0.0
2015-Jan-20 00:34N 54°38' W 008°26'0 0.0
2015-Jan-19 23:33N 54°38' W 008°26'0 0.0
2015-Jan-19 22:33N 54°38' W 008°26'0 0.0
2015-Jan-19 21:33N 54°38' W 008°26'3 2.6
2015-Jan-19 20:33N 54°36' W 008°29'23310.6
2015-Jan-18 22:32N 58°15' W 006°06'4 0.1
2015-Jan-17 09:33N 58°18' W 006°02'234 5.4
2015-Jan-15 14:08N 54°38' W 008°26'0 0.0
2015-Jan-15 13:33N 54°38' W 008°26'0 0.0
2015-Jan-15 00:04N 54°38' W 008°26'0 0.0
2015-Jan-14 23:25N 54°38' W 008°26'0 0.0
2015-Jan-14 21:08N 54°38' W 008°26'0 0.0
2015-Jan-14 20:32N 54°38' W 008°26'0 0.0
2015-Jan-14 19:17N 54°38' W 008°26'0 0.0
2015-Jan-14 04:23N 54°38' W 008°26'0 0.0
2015-Jan-13 17:18N 54°38' W 008°26'0 0.0
2015-Jan-13 15:33N 54°38' W 008°26'0 0.0
2015-Jan-13 07:19N 54°38' W 008°26'0 0.0
2015-Jan-13 05:04N 54°38' W 008°26'  

Dump ship's entire track history